Time;durP1;ratioP1;P1;durP2;ratioP2;P2;SDS_P1;SDS_P2;PMS_P1;PMS_P2;Temp;Humidity;BMP_temperature;BMP_pressure;BME280_temperature;BME280_humidity;BME280_pressure;Samples;Min_cycle;Max_cycle;Signal;HPM_P1;HPM_P2
2021/08/09 00:02:19;;;;;;;4.22;2.40;;;;;;;;;;4943378;28;20473;-80
2021/08/09 00:04:45;;;;;;;4.22;2.08;;;;;;;;;;4946725;29;20069;-79
2021/08/09 00:07:12;;;;;;;4.93;2.00;;;;;;;;;;4943572;28;20062;-80
2021/08/09 00:09:38;;;;;;;4.55;2.10;;;;;;;;;;4943529;29;20083;-79
2021/08/09 00:12:05;;;;;;;3.55;1.88;;;;;;;;;;4941547;29;20522;-79
2021/08/09 00:14:31;;;;;;;4.65;2.40;;;;;;;;;;4924165;29;20113;-79
2021/08/09 00:17:00;;;;;;;4.65;1.98;;;;;;;;;;4943787;28;20042;-80
2021/08/09 00:19:27;;;;;;;3.83;2.17;;;;;;;;;;4943097;28;20452;-80
2021/08/09 00:21:53;;;;;;;4.68;2.42;;;;;;;;;;4941442;28;20071;-79
2021/08/09 00:24:20;;;;;;;4.30;2.03;;;;;;;;;;4944669;29;20073;-80
2021/08/09 00:26:46;;;;;;;3.92;2.17;;;;;;;;;;4945154;28;20051;-81
2021/08/09 00:29:12;;;;;;;4.10;2.00;;;;;;;;;;4944672;28;20121;-79
2021/08/09 00:31:39;;;;;;;4.60;1.88;;;;;;;;;;4944116;29;20062;-80
2021/08/09 00:34:05;;;;;;;4.60;2.17;;;;;;;;;;4945231;28;20109;-80
2021/08/09 00:36:32;;;;;;;4.60;1.85;;;;;;;;;;4944812;28;20063;-79
2021/08/09 00:38:58;;;;;;;5.65;2.10;;;;;;;;;;4943802;28;20067;-80
2021/08/09 00:41:24;;;;;;;3.97;2.15;;;;;;;;;;4943655;28;20062;-79
2021/08/09 00:43:51;;;;;;;3.88;1.70;;;;;;;;;;4942859;28;20440;-79
2021/08/09 00:46:20;;;;;;;5.47;1.70;;;;;;;;;;4944277;29;20062;-80
2021/08/09 00:48:46;;;;;;;4.20;2.13;;;;;;;;;;4945246;28;20186;-80
2021/08/09 00:51:13;;;;;;;4.05;2.00;;;;;;;;;;4946276;28;20516;-79
2021/08/09 00:53:40;;;;;;;4.35;1.60;;;;;;;;;;4928206;28;20075;-79
2021/08/09 00:56:06;;;;;;;4.30;1.67;;;;;;;;;;4942383;28;20059;-79
2021/08/09 00:58:33;;;;;;;4.75;2.00;;;;;;;;;;4942262;29;20055;-79
2021/08/09 01:00:59;;;;;;;6.07;1.98;;;;;;;;;;4943850;28;20082;-80
2021/08/09 01:03:26;;;;;;;5.72;1.92;;;;;;;;;;4946193;28;20070;-78
2021/08/09 01:05:52;;;;;;;7.00;2.08;;;;;;;;;;4927102;29;20062;-78
2021/08/09 01:08:31;;;;;;;4.55;2.30;;;;;;;;;;4943936;28;20067;-79
2021/08/09 01:11:17;;;;;;;4.38;1.63;;;;;;;;;;4944944;28;20031;-78
2021/08/09 01:13:59;;;;;;;4.05;1.90;;;;;;;;;;4945196;28;20071;-78
2021/08/09 01:16:25;;;;;;;;;;;;;;;;;;4948419;29;20073;-78
2021/08/09 01:18:53;;;;;;;3.15;1.90;;;;;;;;;;4946391;28;19923;-77
2021/08/09 01:21:20;;;;;;;4.55;2.20;;;;;;;;;;4949601;28;20067;-79
2021/08/09 01:23:51;;;;;;;3.55;1.77;;;;;;;;;;4946592;29;20077;-79
2021/08/09 01:26:23;;;;;;;4.35;1.80;;;;;;;;;;4945791;28;20090;-80
2021/08/09 01:28:50;;;;;;;5.90;2.20;;;;;;;;;;4944900;28;20134;-81
2021/08/09 01:31:17;;;;;;;5.38;1.80;;;;;;;;;;4947150;28;20303;-81
2021/08/09 01:33:44;;;;;;;4.55;1.80;;;;;;;;;;4946344;29;20059;-80
2021/08/09 01:36:13;;;;;;;3.00;1.88;;;;;;;;;;4945886;28;20063;-81
2021/08/09 01:38:41;;;;;;;3.33;1.67;;;;;;;;;;4948342;29;20158;-81
2021/08/09 01:41:08;;;;;;;3.67;1.80;;;;;;;;;;4945940;28;20094;-81
2021/08/09 01:43:35;;;;;;;2.58;1.75;;;;;;;;;;4948654;28;20028;-81
2021/08/09 01:46:02;;;;;;;4.80;2.05;;;;;;;;;;4943361;28;20146;-81
2021/08/09 01:48:29;;;;;;;4.25;1.90;;;;;;;;;;4932817;29;20577;-81
2021/08/09 01:50:56;;;;;;;4.45;1.92;;;;;;;;;;4946334;29;20842;-81
2021/08/09 01:53:23;;;;;;;4.78;1.90;;;;;;;;;;4926289;28;20207;-82
2021/08/09 01:55:50;;;;;;;3.35;1.65;;;;;;;;;;4944721;29;20150;-82
2021/08/09 01:58:16;;;;;;;5.68;2.00;;;;;;;;;;4944790;28;20086;-81
2021/08/09 02:00:43;;;;;;;3.22;1.60;;;;;;;;;;4943749;28;20139;-81
2021/08/09 02:03:09;;;;;;;3.65;1.70;;;;;;;;;;4945687;28;20055;-82
2021/08/09 02:05:36;;;;;;;4.20;2.08;;;;;;;;;;4929829;28;20094;-82
2021/08/09 02:08:02;;;;;;;3.30;1.80;;;;;;;;;;4944875;28;20120;-82
2021/08/09 02:10:30;;;;;;;4.07;1.80;;;;;;;;;;4945409;29;20063;-82
2021/08/09 02:13:15;;;;;;;3.33;1.70;;;;;;;;;;4946110;28;20066;-81
2021/08/09 02:15:44;;;;;;;3.45;2.00;;;;;;;;;;4946069;28;20169;-80
2021/08/09 02:18:22;;;;;;;3.05;1.70;;;;;;;;;;4942752;28;20117;-80
2021/08/09 02:20:49;;;;;;;5.32;1.77;;;;;;;;;;4943796;28;20071;-81
2021/08/09 02:23:18;;;;;;;4.10;2.00;;;;;;;;;;4945497;28;20078;-81
2021/08/09 02:25:47;;;;;;;3.30;1.50;;;;;;;;;;4943794;29;20185;-81
2021/08/09 02:28:16;;;;;;;3.10;1.70;;;;;;;;;;4945205;28;20478;-81
2021/08/09 02:30:48;;;;;;;3.78;2.00;;;;;;;;;;4947170;28;20067;-81
2021/08/09 02:33:15;;;;;;;3.38;1.67;;;;;;;;;;4943713;28;20059;-81
2021/08/09 02:35:42;;;;;;;3.25;1.75;;;;;;;;;;4944627;28;21264;-81
2021/08/09 02:38:10;;;;;;;3.20;1.67;;;;;;;;;;4945366;29;20114;-81
2021/08/09 02:40:36;;;;;;;3.60;1.83;;;;;;;;;;4946370;28;20066;-81
2021/08/09 02:43:03;;;;;;;3.35;1.80;;;;;;;;;;4946534;28;20130;-81
2021/08/09 02:45:30;;;;;;;3.13;1.63;;;;;;;;;;4944812;29;20070;-80
2021/08/09 02:47:57;;;;;;;3.40;1.60;;;;;;;;;;4940812;28;20522;-81
2021/08/09 02:50:23;;;;;;;5.63;1.83;;;;;;;;;;4943164;29;20111;-81
2021/08/09 02:52:50;;;;;;;2.70;1.60;;;;;;;;;;4943880;28;20038;-81
2021/08/09 02:55:17;;;;;;;3.90;1.73;;;;;;;;;;4941023;28;21547;-80
2021/08/09 02:57:44;;;;;;;3.83;1.70;;;;;;;;;;4943846;28;20070;-80
2021/08/09 03:00:11;;;;;;;4.57;1.83;;;;;;;;;;4945738;29;20085;-80
2021/08/09 03:02:39;;;;;;;3.25;1.75;;;;;;;;;;4946511;28;20692;-81
2021/08/09 03:05:06;;;;;;;2.53;1.60;;;;;;;;;;4944440;28;20122;-80
2021/08/09 03:07:35;;;;;;;4.53;1.80;;;;;;;;;;4945882;28;20063;-80
2021/08/09 03:10:02;;;;;;;3.15;1.83;;;;;;;;;;4944573;28;20496;-80
2021/08/09 03:12:28;;;;;;;4.28;1.50;;;;;;;;;;4946900;28;20083;-80
2021/08/09 03:14:55;;;;;;;3.40;1.60;;;;;;;;;;4942993;29;20043;-79
2021/08/09 03:17:21;;;;;;;3.90;1.80;;;;;;;;;;4945627;28;20526;-80
2021/08/09 03:19:48;;;;;;;3.95;1.85;;;;;;;;;;4943670;28;20074;-79
2021/08/09 03:22:14;;;;;;;2.40;1.60;;;;;;;;;;4945209;28;21126;-81
2021/08/09 03:24:40;;;;;;;2.85;1.70;;;;;;;;;;4943293;28;20027;-81
2021/08/09 03:27:07;;;;;;;4.32;2.10;;;;;;;;;;4945011;29;20087;-80
2021/08/09 03:29:33;;;;;;;4.05;1.90;;;;;;;;;;4945357;29;20067;-80
2021/08/09 03:32:00;;;;;;;2.90;1.77;;;;;;;;;;4941730;28;20067;-81
2021/08/09 03:34:26;;;;;;;3.08;1.80;;;;;;;;;;4944335;28;20102;-79
2021/08/09 03:36:53;;;;;;;3.08;1.67;;;;;;;;;;4940910;29;20055;-78
2021/08/09 03:39:20;;;;;;;3.58;1.80;;;;;;;;;;4944942;28;20077;-80
2021/08/09 03:41:46;;;;;;;5.18;2.00;;;;;;;;;;4944045;29;20062;-79
2021/08/09 03:44:13;;;;;;;3.40;1.70;;;;;;;;;;4943297;28;20106;-80
2021/08/09 03:46:39;;;;;;;3.03;1.70;;;;;;;;;;4944193;29;20059;-81
2021/08/09 03:49:09;;;;;;;3.47;1.70;;;;;;;;;;4933657;28;20063;-80
2021/08/09 03:51:40;;;;;;;2.55;1.67;;;;;;;;;;4941860;28;20066;-79
2021/08/09 03:54:07;;;;;;;5.38;2.28;;;;;;;;;;4940528;28;20067;-80
2021/08/09 03:56:36;;;;;;;2.80;1.70;;;;;;;;;;4941686;28;20102;-80
2021/08/09 03:59:03;;;;;;;2.30;1.50;;;;;;;;;;4943705;28;20082;-80
2021/08/09 04:01:29;;;;;;;2.40;1.67;;;;;;;;;;4944106;29;20104;-80
2021/08/09 04:03:56;;;;;;;3.03;1.83;;;;;;;;;;4943587;29;20544;-81
2021/08/09 04:06:24;;;;;;;3.72;1.98;;;;;;;;;;4945616;28;20086;-79
2021/08/09 04:08:50;;;;;;;4.57;1.80;;;;;;;;;;4946157;28;20142;-81
2021/08/09 04:11:17;;;;;;;2.35;1.70;;;;;;;;;;4938902;29;21235;-80
2021/08/09 04:13:44;;;;;;;3.28;2.20;;;;;;;;;;4941615;29;20055;-82
2021/08/09 04:16:10;;;;;;;4.10;2.03;;;;;;;;;;4944617;28;20483;-80
2021/08/09 04:18:37;;;;;;;3.13;1.70;;;;;;;;;;4944966;28;20087;-82
2021/08/09 04:21:03;;;;;;;4.38;1.70;;;;;;;;;;4943784;28;20126;-81
2021/08/09 04:23:30;;;;;;;3.03;1.92;;;;;;;;;;4940238;29;20157;-80
2021/08/09 04:25:56;;;;;;;4.90;2.00;;;;;;;;;;4941483;28;20063;-79
2021/08/09 04:28:22;;;;;;;2.67;1.70;;;;;;;;;;4939268;28;20063;-80
2021/08/09 04:30:49;;;;;;;2.53;1.63;;;;;;;;;;4926579;29;20071;-81
2021/08/09 04:33:15;;;;;;;5.00;2.05;;;;;;;;;;4926738;29;20059;-82
2021/08/09 04:35:42;;;;;;;8.45;3.05;;;;;;;;;;4942898;28;21643;-80
2021/08/09 04:38:08;;;;;;;7.43;3.13;;;;;;;;;;4927229;29;20071;-81
2021/08/09 04:40:34;;;;;;;6.10;2.10;;;;;;;;;;4943335;28;21406;-80
2021/08/09 04:43:01;;;;;;;4.88;2.60;;;;;;;;;;4943412;28;20066;-80
2021/08/09 04:45:27;;;;;;;5.53;2.22;;;;;;;;;;4942089;28;20161;-83
2021/08/09 04:47:54;;;;;;;7.25;2.60;;;;;;;;;;4923646;29;20067;-82
2021/08/09 04:50:20;;;;;;;6.40;2.33;;;;;;;;;;4928674;28;20067;-82
2021/08/09 04:52:47;;;;;;;9.60;3.00;;;;;;;;;;4946047;29;20066;-82
2021/08/09 04:55:14;;;;;;;5.10;2.20;;;;;;;;;;4945260;28;20089;-82
2021/08/09 04:57:40;;;;;;;5.38;2.38;;;;;;;;;;4928332;28;20068;-82
2021/08/09 05:00:07;;;;;;;4.22;2.10;;;;;;;;;;4955771;28;20067;-82
2021/08/09 05:02:36;;;;;;;6.15;1.90;;;;;;;;;;4938997;29;20042;-82
2021/08/09 05:05:02;;;;;;;7.18;2.33;;;;;;;;;;4945994;28;20098;-83
2021/08/09 05:07:29;;;;;;;6.38;2.65;;;;;;;;;;4944195;28;20050;-82
2021/08/09 05:09:55;;;;;;;9.23;2.70;;;;;;;;;;4941388;28;20070;-81
2021/08/09 05:12:22;;;;;;;6.95;2.35;;;;;;;;;;4943679;28;20059;-81
2021/08/09 05:14:48;;;;;;;6.45;2.40;;;;;;;;;;4943082;28;20051;-80
2021/08/09 05:17:15;;;;;;;4.53;2.83;;;;;;;;;;4945154;28;20097;-81
2021/08/09 05:19:41;;;;;;;5.32;2.40;;;;;;;;;;4945199;28;20031;-81
2021/08/09 05:22:08;;;;;;;5.00;2.30;;;;;;;;;;4939863;29;20082;-80
2021/08/09 05:24:35;;;;;;;5.47;2.40;;;;;;;;;;4945014;28;20569;-81
2021/08/09 05:27:03;;;;;;;9.35;2.80;;;;;;;;;;4940532;28;20067;-80
2021/08/09 05:29:29;;;;;;;4.45;2.83;;;;;;;;;;4942806;29;20074;-81
2021/08/09 05:31:56;;;;;;;4.95;2.40;;;;;;;;;;4942072;29;20122;-80
2021/08/09 05:34:22;;;;;;;4.68;2.40;;;;;;;;;;4943363;28;20146;-81
2021/08/09 05:36:49;;;;;;;4.47;2.38;;;;;;;;;;4943724;29;20058;-81
2021/08/09 05:39:16;;;;;;;5.95;3.30;;;;;;;;;;4940540;28;20059;-80
2021/08/09 05:41:42;;;;;;;7.40;3.05;;;;;;;;;;4942101;29;20051;-81
2021/08/09 05:44:09;;;;;;;7.82;3.22;;;;;;;;;;4941899;28;20075;-80
2021/08/09 05:46:35;;;;;;;8.82;2.90;;;;;;;;;;4944103;28;20070;-82
2021/08/09 05:49:01;;;;;;;6.93;3.42;;;;;;;;;;4932039;28;20543;-80
2021/08/09 05:51:28;;;;;;;8.60;2.88;;;;;;;;;;4942486;28;20076;-80
2021/08/09 05:53:54;;;;;;;7.10;3.10;;;;;;;;;;4924792;28;20070;-80
2021/08/09 05:56:20;;;;;;;9.65;3.38;;;;;;;;;;4944676;28;20074;-83
2021/08/09 05:58:47;;;;;;;6.35;2.80;;;;;;;;;;4941552;28;20051;-84
2021/08/09 06:01:13;;;;;;;6.75;2.70;;;;;;;;;;4944870;28;20051;-84
2021/08/09 06:03:41;;;;;;;8.35;3.28;;;;;;;;;;4944634;29;20094;-83
2021/08/09 06:06:08;;;;;;;5.20;2.63;;;;;;;;;;4945395;28;20063;-82
2021/08/09 06:08:34;;;;;;;6.30;2.90;;;;;;;;;;4942419;28;20620;-82
2021/08/09 06:11:00;;;;;;;7.60;3.00;;;;;;;;;;4943255;29;20050;-80
2021/08/09 06:13:28;;;;;;;5.47;2.60;;;;;;;;;;4945289;28;20031;-81
2021/08/09 06:15:54;;;;;;;5.68;3.17;;;;;;;;;;4946016;28;20071;-80
2021/08/09 06:18:21;;;;;;;5.95;2.78;;;;;;;;;;4944673;28;20063;-80
2021/08/09 06:20:47;;;;;;;4.25;2.13;;;;;;;;;;4945820;28;20070;-81
2021/08/09 06:23:13;;;;;;;4.53;2.72;;;;;;;;;;4944792;29;20047;-80
2021/08/09 06:25:40;;;;;;;5.93;2.85;;;;;;;;;;4942492;29;20059;-80
2021/08/09 06:28:06;;;;;;;5.07;2.80;;;;;;;;;;4942570;28;20134;-80
2021/08/09 06:30:33;;;;;;;6.68;2.55;;;;;;;;;;4942312;28;20043;-80
2021/08/09 06:32:59;;;;;;;7.15;3.13;;;;;;;;;;4941460;29;20140;-80
2021/08/09 06:35:25;;;;;;;6.13;2.90;;;;;;;;;;4945823;28;20075;-80
2021/08/09 06:37:52;;;;;;;8.23;3.20;;;;;;;;;;4944725;28;20071;-78
2021/08/09 06:40:18;;;;;;;4.75;2.38;;;;;;;;;;4947080;29;20090;-79
2021/08/09 06:42:45;;;;;;;4.88;2.35;;;;;;;;;;4944728;28;20050;-80
2021/08/09 06:45:11;;;;;;;6.43;2.80;;;;;;;;;;4942971;29;20058;-79
2021/08/09 06:47:38;;;;;;;4.88;2.78;;;;;;;;;;4944450;29;20062;-79
2021/08/09 06:50:04;;;;;;;6.15;2.80;;;;;;;;;;4941259;28;20581;-80
2021/08/09 06:52:33;;;;;;;7.32;2.75;;;;;;;;;;4943882;28;20070;-79
2021/08/09 06:54:59;;;;;;;4.45;2.38;;;;;;;;;;4941332;28;20067;-79
2021/08/09 06:57:25;;;;;;;6.63;2.42;;;;;;;;;;4927941;29;20074;-79
2021/08/09 06:59:52;;;;;;;6.05;2.58;;;;;;;;;;4943576;28;20051;-79
2021/08/09 07:02:18;;;;;;;4.50;2.30;;;;;;;;;;4934407;28;21001;-79
2021/08/09 07:04:45;;;;;;;2.88;2.08;;;;;;;;;;4940697;28;20059;-79
2021/08/09 07:07:11;;;;;;;4.53;2.33;;;;;;;;;;4941171;28;20043;-79
2021/08/09 07:09:37;;;;;;;5.70;2.60;;;;;;;;;;4941994;28;20086;-79
2021/08/09 07:12:04;;;;;;;3.00;2.10;;;;;;;;;;4940971;28;20422;-79
2021/08/09 07:14:30;;;;;;;5.47;2.63;;;;;;;;;;4944049;29;20066;-80
2021/08/09 07:16:58;;;;;;;5.80;2.90;;;;;;;;;;4942025;29;20060;-79
2021/08/09 07:19:24;;;;;;;5.85;2.60;;;;;;;;;;4938011;29;20035;-81
2021/08/09 07:21:51;;;;;;;4.43;2.40;;;;;;;;;;4922985;29;20518;-79
2021/08/09 07:24:17;;;;;;;4.05;2.22;;;;;;;;;;4938374;28;20539;-79
2021/08/09 07:26:46;;;;;;;3.47;2.30;;;;;;;;;;4942998;28;20499;-80
2021/08/09 07:29:13;;;;;;;5.20;2.40;;;;;;;;;;4941027;29;20071;-80
2021/08/09 07:31:39;;;;;;;6.32;2.45;;;;;;;;;;4938934;28;20488;-80
2021/08/09 07:34:05;;;;;;;3.85;2.50;;;;;;;;;;4931591;28;20067;-79
2021/08/09 07:36:32;;;;;;;6.22;2.55;;;;;;;;;;4912312;29;20035;-78
2021/08/09 07:38:58;;;;;;;4.78;2.33;;;;;;;;;;4942876;28;20542;-79
2021/08/09 07:41:24;;;;;;;3.03;1.90;;;;;;;;;;4944255;28;20051;-79
2021/08/09 07:43:51;;;;;;;5.60;2.78;;;;;;;;;;4927479;29;20071;-78
2021/08/09 07:46:17;;;;;;;5.43;2.63;;;;;;;;;;4939361;28;20434;-79
2021/08/09 07:48:44;;;;;;;4.28;2.15;;;;;;;;;;4936455;28;20067;-79
2021/08/09 07:51:10;;;;;;;3.70;2.33;;;;;;;;;;4936872;29;20067;-79
2021/08/09 07:53:37;;;;;;;3.15;2.00;;;;;;;;;;4939904;28;20067;-79
2021/08/09 07:56:03;;;;;;;3.58;2.05;;;;;;;;;;4939929;28;20738;-82
2021/08/09 07:58:30;;;;;;;3.90;2.65;;;;;;;;;;4943115;28;20059;-79
2021/08/09 08:00:58;;;;;;;4.13;2.00;;;;;;;;;;4939198;28;20471;-79
2021/08/09 08:03:24;;;;;;;3.80;2.30;;;;;;;;;;4940957;28;20074;-80
2021/08/09 08:05:51;;;;;;;4.07;2.13;;;;;;;;;;4942916;28;20067;-79
2021/08/09 08:08:17;;;;;;;4.78;2.10;;;;;;;;;;4940501;28;20775;-79
2021/08/09 08:10:43;;;;;;;4.10;2.20;;;;;;;;;;4942297;28;20479;-79
2021/08/09 08:13:10;;;;;;;4.65;2.17;;;;;;;;;;4940709;28;20063;-79
2021/08/09 08:15:39;;;;;;;3.90;2.15;;;;;;;;;;4942591;28;20503;-79
2021/08/09 08:18:06;;;;;;;4.10;2.00;;;;;;;;;;4938254;29;20062;-79
2021/08/09 08:20:32;;;;;;;4.70;2.13;;;;;;;;;;4939940;28;20067;-79
2021/08/09 08:23:02;;;;;;;2.95;2.00;;;;;;;;;;4926324;29;20070;-79
2021/08/09 08:25:28;;;;;;;3.45;1.95;;;;;;;;;;4941392;29;20071;-79
2021/08/09 08:27:55;;;;;;;3.80;2.33;;;;;;;;;;4940102;28;20055;-79
2021/08/09 08:30:21;;;;;;;2.63;1.77;;;;;;;;;;4942011;28;20530;-79
2021/08/09 08:32:48;;;;;;;2.80;1.60;;;;;;;;;;4941783;28;20043;-79
2021/08/09 08:35:14;;;;;;;4.35;1.95;;;;;;;;;;4940253;28;20067;-78
2021/08/09 08:37:41;;;;;;;4.28;2.42;;;;;;;;;;4938934;28;20040;-79
2021/08/09 08:40:07;;;;;;;3.10;2.17;;;;;;;;;;4938157;28;20059;-79
2021/08/09 08:42:38;;;;;;;4.38;2.33;;;;;;;;;;4929529;29;20043;-79
2021/08/09 08:45:05;;;;;;;3.35;1.90;;;;;;;;;;4941528;29;20110;-79
2021/08/09 08:47:32;;;;;;;2.45;1.70;;;;;;;;;;4938344;29;20071;-79
2021/08/09 08:50:00;;;;;;;4.85;2.33;;;;;;;;;;4940505;28;20118;-79
2021/08/09 08:52:27;;;;;;;3.95;1.42;;;;;;;;;;4927185;29;20086;-81
2021/08/09 08:54:53;;;;;;;3.38;1.98;;;;;;;;;;4941172;28;20523;-79
2021/08/09 08:57:21;;;;;;;3.22;2.10;;;;;;;;;;4942650;28;20074;-79
2021/08/09 08:59:48;;;;;;;4.63;2.10;;;;;;;;;;4939180;28;20070;-79
2021/08/09 09:02:33;;;;;;;3.53;2.17;;;;;;;;;;4938540;29;20086;-78
2021/08/09 09:05:30;;;;;;;3.55;2.30;;;;;;;;;;4939295;28;20062;-79
2021/08/09 09:07:58;;;;;;;3.53;2.28;;;;;;;;;;4923916;29;20055;-79
2021/08/09 09:10:29;;;;;;;6.03;3.20;;;;;;;;;;4940231;28;20074;-78
2021/08/09 09:13:14;;;;;;;8.10;5.50;;;;;;;;;;4939386;28;20608;-78
2021/08/09 09:15:52;;;;;;;7.07;4.53;;;;;;;;;;4941428;28;20122;-78
2021/08/09 09:18:19;;;;;;;9.10;6.00;;;;;;;;;;4941311;28;20091;-79
2021/08/09 09:20:45;;;;;;;8.02;4.30;;;;;;;;;;4941355;29;20126;-79
2021/08/09 09:23:13;;;;;;;7.00;3.85;;;;;;;;;;4940437;28;20074;-79
2021/08/09 09:25:40;;;;;;;5.03;3.28;;;;;;;;;;4941997;28;20059;-79
2021/08/09 09:28:26;;;;;;;5.60;3.60;;;;;;;;;;4936849;29;20571;-79
2021/08/09 09:30:54;;;;;;;5.95;3.47;;;;;;;;;;4941600;28;20063;-78
2021/08/09 09:33:21;;;;;;;8.25;3.58;;;;;;;;;;4940471;28;22255;-79
2021/08/09 09:35:50;;;;;;;6.15;3.03;;;;;;;;;;4945123;29;20133;-78
2021/08/09 09:38:17;;;;;;;7.45;4.00;;;;;;;;;;4923126;29;20633;-78
2021/08/09 09:40:43;;;;;;;7.43;3.47;;;;;;;;;;4945044;28;20132;-79
2021/08/09 09:43:20;;;;;;;6.40;3.60;;;;;;;;;;4940468;28;20062;-78
2021/08/09 09:45:54;;;;;;;5.53;3.17;;;;;;;;;;4942895;29;20110;-79
2021/08/09 09:48:37;;;;;;;5.10;3.20;;;;;;;;;;4926751;29;20602;-79
2021/08/09 09:51:10;;;;;;;4.90;3.10;;;;;;;;;;4925815;29;20134;-79
2021/08/09 09:53:37;;;;;;;4.22;3.20;;;;;;;;;;4941662;28;20051;-79
2021/08/09 09:56:04;;;;;;;6.45;3.17;;;;;;;;;;4944400;29;20063;-79
2021/08/09 09:58:31;;;;;;;5.65;2.38;;;;;;;;;;4943634;29;20078;-79
2021/08/09 10:00:59;;;;;;;4.55;2.90;;;;;;;;;;4931824;28;20058;-79
2021/08/09 10:03:26;;;;;;;5.95;2.60;;;;;;;;;;4940060;28;20118;-78
2021/08/09 10:05:53;;;;;;;3.38;2.15;;;;;;;;;;4943856;28;20043;-79
2021/08/09 10:08:20;;;;;;;5.47;2.40;;;;;;;;;;4942340;29;20195;-79
2021/08/09 10:10:50;;;;;;;6.03;3.20;;;;;;;;;;4942633;28;21270;-80
2021/08/09 10:13:17;;;;;;;3.30;1.48;;;;;;;;;;4910307;29;20104;-80
2021/08/09 10:15:43;;;;;;;7.35;4.00;;;;;;;;;;4944643;28;20067;-80
2021/08/09 10:18:10;;;;;;;3.88;2.22;;;;;;;;;;4942312;28;20059;-80
2021/08/09 10:20:37;;;;;;;6.63;3.40;;;;;;;;;;4944305;28;20083;-80
2021/08/09 10:23:06;;;;;;;4.82;2.70;;;;;;;;;;4928770;28;20067;-80
2021/08/09 10:25:46;;;;;;;4.95;2.50;;;;;;;;;;4930913;29;20139;-80
2021/08/09 10:28:13;;;;;;;4.35;2.50;;;;;;;;;;4934362;29;20036;-80
2021/08/09 10:30:40;;;;;;;4.10;2.22;;;;;;;;;;4928790;29;20056;-80
2021/08/09 10:33:10;;;;;;;6.13;3.40;;;;;;;;;;4927306;29;20416;-81
2021/08/09 10:35:38;;;;;;;5.13;2.50;;;;;;;;;;4928562;29;20051;-80
2021/08/09 10:38:20;;;;;;;5.57;2.30;;;;;;;;;;4926031;29;20095;-80
2021/08/09 10:40:48;;;;;;;6.25;3.10;;;;;;;;;;4924390;29;20063;-80
2021/08/09 10:43:15;;;;;;;4.97;2.42;;;;;;;;;;4923434;29;20126;-80
2021/08/09 10:45:46;;;;;;;4.93;2.80;;;;;;;;;;4938501;28;20075;-80
2021/08/09 10:48:13;;;;;;;4.55;2.75;;;;;;;;;;4919020;29;20523;-80
2021/08/09 10:50:40;;;;;;;3.72;2.17;;;;;;;;;;4924662;29;20071;-80
2021/08/09 10:53:25;;;;;;;6.75;3.05;;;;;;;;;;4922493;29;20132;-80
2021/08/09 10:55:53;;;;;;;5.65;2.78;;;;;;;;;;4923943;29;20451;-80
2021/08/09 10:58:38;;;;;;;5.57;2.75;;;;;;;;;;4922883;29;20301;-82
2021/08/09 11:01:04;;;;;;;6.30;2.40;;;;;;;;;;4925390;29;20870;-81
2021/08/09 11:03:30;;;;;;;4.82;2.78;;;;;;;;;;4924175;29;20068;-82
2021/08/09 11:05:57;;;;;;;6.53;2.90;;;;;;;;;;4922545;29;20473;-81
2021/08/09 11:08:23;;;;;;;5.07;2.33;;;;;;;;;;4922903;29;20066;-81
2021/08/09 11:10:56;;;;;;;4.50;2.53;;;;;;;;;;4923807;29;20078;-82
2021/08/09 11:13:23;;;;;;;4.70;2.38;;;;;;;;;;4902676;29;20123;-82
2021/08/09 11:15:56;;;;;;;3.30;2.20;;;;;;;;;;4923416;29;20107;-81
2021/08/09 11:18:23;;;;;;;4.13;2.47;;;;;;;;;;4924201;29;20178;-82
2021/08/09 11:21:00;;;;;;;3.55;2.13;;;;;;;;;;4928255;29;20150;-82
2021/08/09 11:23:27;;;;;;;3.63;2.20;;;;;;;;;;4936977;28;20622;-82
2021/08/09 11:25:53;;;;;;;4.85;2.17;;;;;;;;;;4942271;28;20122;-81
2021/08/09 11:28:23;;;;;;;3.60;2.15;;;;;;;;;;4940986;29;20290;-80
2021/08/09 11:31:03;;;;;;;2.75;2.20;;;;;;;;;;4928007;28;20071;-79
2021/08/09 11:33:41;;;;;;;4.93;2.67;;;;;;;;;;4943130;28;21233;-80
2021/08/09 11:36:12;;;;;;;4.22;2.42;;;;;;;;;;4940682;28;20455;-80
2021/08/09 11:38:52;;;;;;;4.20;2.38;;;;;;;;;;4944115;28;20066;-79
2021/08/09 11:41:22;;;;;;;4.63;2.40;;;;;;;;;;4942623;28;21378;-79
2021/08/09 11:43:50;;;;;;;4.90;2.65;;;;;;;;;;4944643;28;20523;-79
2021/08/09 11:46:18;;;;;;;3.65;2.50;;;;;;;;;;4942771;29;20519;-78
2021/08/09 11:48:48;;;;;;;5.07;2.40;;;;;;;;;;4941344;28;20075;-80
2021/08/09 11:51:25;;;;;;;4.13;2.30;;;;;;;;;;4942348;28;20047;-80
2021/08/09 11:53:53;;;;;;;5.05;2.15;;;;;;;;;;4940950;29;20063;-81
2021/08/09 11:56:30;;;;;;;4.25;2.30;;;;;;;;;;4938506;28;20184;-81
2021/08/09 11:59:00;;;;;;;4.38;2.75;;;;;;;;;;4948722;28;20046;-80
2021/08/09 12:01:34;;;;;;;4.03;2.30;;;;;;;;;;4944005;28;20074;-80
2021/08/09 12:04:02;;;;;;;4.72;2.45;;;;;;;;;;4942115;28;20066;-80
2021/08/09 12:06:30;;;;;;;2.95;2.20;;;;;;;;;;4945117;29;20054;-80
2021/08/09 12:08:57;;;;;;;4.97;2.65;;;;;;;;;;4942158;29;20082;-80
2021/08/09 12:11:24;;;;;;;4.18;2.38;;;;;;;;;;4941769;29;20066;-80
2021/08/09 12:14:03;;;;;;;5.05;2.25;;;;;;;;;;4943013;29;20075;-81
2021/08/09 12:16:29;;;;;;;4.88;2.15;;;;;;;;;;4944209;28;20118;-80
2021/08/09 12:18:56;;;;;;;5.13;2.80;;;;;;;;;;4923831;29;20566;-79
2021/08/09 12:21:33;;;;;;;3.05;2.00;;;;;;;;;;4944730;29;20066;-80
2021/08/09 12:23:59;;;;;;;4.68;2.47;;;;;;;;;;4942967;28;20062;-80
2021/08/09 12:26:30;;;;;;;5.25;2.58;;;;;;;;;;4942408;29;20607;-81
2021/08/09 12:28:58;;;;;;;3.40;2.35;;;;;;;;;;4942646;28;20639;-80
2021/08/09 12:31:32;;;;;;;6.20;2.78;;;;;;;;;;4943915;28;20091;-82
2021/08/09 12:33:59;;;;;;;4.75;2.25;;;;;;;;;;4931183;28;20067;-82
2021/08/09 12:36:27;;;;;;;4.22;2.35;;;;;;;;;;4943512;28;20066;-82
2021/08/09 12:38:53;;;;;;;5.47;2.72;;;;;;;;;;4945915;29;20098;-79
2021/08/09 12:41:27;;;;;;;3.58;2.22;;;;;;;;;;4926538;29;20038;-82
2021/08/09 12:43:54;;;;;;;3.92;2.58;;;;;;;;;;4945497;28;20059;-78
2021/08/09 12:46:20;;;;;;;5.45;2.20;;;;;;;;;;4943371;28;20059;-81
2021/08/09 12:48:50;;;;;;;2.70;2.05;;;;;;;;;;4944598;28;20115;-81
2021/08/09 12:51:17;;;;;;;4.65;2.20;;;;;;;;;;4941987;29;20074;-81
2021/08/09 12:53:43;;;;;;;2.90;1.92;;;;;;;;;;4944975;28;20121;-81
2021/08/09 12:56:11;;;;;;;4.43;2.72;;;;;;;;;;4927294;29;20074;-82
2021/08/09 12:58:38;;;;;;;3.13;2.22;;;;;;;;;;4943414;28;20657;-82
2021/08/09 13:01:05;;;;;;;3.88;2.60;;;;;;;;;;4942035;28;20154;-83
2021/08/09 13:03:31;;;;;;;3.80;2.67;;;;;;;;;;4947064;28;20047;-83
2021/08/09 13:06:00;;;;;;;4.40;2.30;;;;;;;;;;4949617;28;20039;-81
2021/08/09 13:08:28;;;;;;;5.10;2.30;;;;;;;;;;4940656;28;20101;-81
2021/08/09 13:10:56;;;;;;;3.40;2.50;;;;;;;;;;4941340;28;20109;-80
2021/08/09 13:13:23;;;;;;;3.33;2.03;;;;;;;;;;4942379;28;20040;-82
2021/08/09 13:15:49;;;;;;;3.40;2.10;;;;;;;;;;4941122;29;20521;-81
2021/08/09 13:18:16;;;;;;;4.75;2.42;;;;;;;;;;4954223;28;20062;-82
2021/08/09 13:20:43;;;;;;;4.07;2.10;;;;;;;;;;4929774;29;20063;-81
2021/08/09 13:23:11;;;;;;;4.03;2.30;;;;;;;;;;4941344;29;20042;-82
2021/08/09 13:25:37;;;;;;;6.35;2.50;;;;;;;;;;4931221;29;20043;-81
2021/08/09 13:28:04;;;;;;;4.13;2.40;;;;;;;;;;4959666;28;20043;-82
2021/08/09 13:30:30;;;;;;;5.47;2.58;;;;;;;;;;4955224;28;20431;-82
2021/08/09 13:32:58;;;;;;;4.63;2.17;;;;;;;;;;4921721;29;20035;-82
2021/08/09 13:35:24;;;;;;;4.53;2.35;;;;;;;;;;4953223;28;20046;-83
2021/08/09 13:37:51;;;;;;;6.88;2.90;;;;;;;;;;4961923;28;20043;-82
2021/08/09 13:40:17;;;;;;;4.85;2.55;;;;;;;;;;4919422;29;20610;-83
2021/08/09 13:42:44;;;;;;;5.55;2.58;;;;;;;;;;4957501;28;20044;-83
2021/08/09 13:45:10;;;;;;;5.63;2.50;;;;;;;;;;4933774;29;20043;-82
2021/08/09 13:47:37;;;;;;;3.90;2.30;;;;;;;;;;4943318;28;20039;-81
2021/08/09 13:50:05;;;;;;;4.80;2.22;;;;;;;;;;4934876;29;20161;-82
2021/08/09 13:52:32;;;;;;;4.05;2.45;;;;;;;;;;4954910;28;20039;-81
2021/08/09 13:54:58;;;;;;;4.32;2.30;;;;;;;;;;4941050;29;20090;-81
2021/08/09 13:57:25;;;;;;;4.50;2.25;;;;;;;;;;4957206;28;20079;-81
2021/08/09 13:59:51;;;;;;;6.05;2.70;;;;;;;;;;4958045;28;20031;-81
2021/08/09 14:02:18;;;;;;;5.45;2.20;;;;;;;;;;4941679;29;20031;-77
2021/08/09 14:04:44;;;;;;;4.80;2.47;;;;;;;;;;4940975;28;20134;-82
2021/08/09 14:07:11;;;;;;;5.22;2.33;;;;;;;;;;4925474;29;20566;-81
2021/08/09 14:09:38;;;;;;;8.02;2.20;;;;;;;;;;4944035;28;20086;-82
2021/08/09 14:12:06;;;;;;;4.18;2.50;;;;;;;;;;4946416;28;20043;-83
2021/08/09 14:14:32;;;;;;;4.65;2.10;;;;;;;;;;4942767;28;20215;-82
2021/08/09 14:17:02;;;;;;;5.97;2.67;;;;;;;;;;4928661;28;20055;-82
2021/08/09 14:19:29;;;;;;;4.85;2.40;;;;;;;;;;4936232;28;20062;-83
2021/08/09 14:21:56;;;;;;;4.07;2.25;;;;;;;;;;4928122;28;20047;-82
2021/08/09 14:24:23;;;;;;;3.83;2.13;;;;;;;;;;4942442;28;20065;-82
2021/08/09 14:26:49;;;;;;;6.30;2.60;;;;;;;;;;4915125;29;20148;-82
2021/08/09 14:29:17;;;;;;;7.88;2.47;;;;;;;;;;4949182;28;20601;-79
2021/08/09 14:31:43;;;;;;;4.20;2.55;;;;;;;;;;4917480;29;20634;-80
2021/08/09 14:34:09;;;;;;;3.10;2.38;;;;;;;;;;4939567;28;20154;-86
2021/08/09 14:36:36;;;;;;;5.90;2.40;;;;;;;;;;4948521;28;20062;-83
2021/08/09 14:39:02;;;;;;;4.68;2.40;;;;;;;;;;4937981;28;20035;-83
2021/08/09 14:41:29;;;;;;;6.20;2.38;;;;;;;;;;4942049;28;20074;-84
2021/08/09 14:43:56;;;;;;;6.47;2.90;;;;;;;;;;4942506;28;20039;-82
2021/08/09 14:46:22;;;;;;;7.10;2.50;;;;;;;;;;4911172;29;20063;-84
2021/08/09 14:48:49;;;;;;;5.40;2.78;;;;;;;;;;4912869;29;20054;-85